Tiempo atmosférico en la estación meteorológica de Sevilla, Tablada, Sevilla (9 m.)



Fecha
DESCASC
Temp. máxima en grados centígrados (hora)
DESCASC
Temp. mínima en grados centígrados (hora)
DESCASC
Temp. media en grados centígrados
DESCASC
Racha de viento máxima en m/sg (hora)
DESCASC
Velocidad máxima media en intervalos de 10 minutos(hora)
DESCASC
Precipitaciones diarias en mm
DESCASC
Precipitaciones de 00:00 a 06:00 en mm
DESCASC
Precipitaciones de 06:00 a 12:00 en mm
DESCASC
Precipitaciones de 12:00 a 18:00 en mm
DESCASC
Precipitaciones de 18:00 a 24:00 en mm
DESCASC
29-10-2020 29.5 (15:20) 13 (04:40) 21.3 6.67 (11:40) 2.5 (16:40) 0 0 0 0 0
28-10-2020 24.2 (16:10) 10.1 (06:00) 17.2 4.17 (14:10) 1.94 (12:10) 0 0 0 0 0
27-10-2020 21.7 (15:20) 7.7 (00:00) 14.7 3.61 (14:30) 1.67 (08:30) 0 0 0 0 0
26-10-2020 20.9 (14:10) 11.2 (00:00) 16 8.61 (15:40) 3.61 (11:50) 0 0 0 0 0
25-10-2020 22.2 (14:50) 11.4 (00:00) 16.8 9.72 (17:50) 5.28 (17:50) 2.8 0 0 0 2.8
24-10-2020 22.9 (16:10) 12.3 (00:00) 17.6 3.61 (15:40) 1.67 (16:10) 0 0 0 0 0
23-10-2020 23.5 (16:10) 11.1 (00:00) 17.3 5 (19:30) 2.78 (16:30) 0 0 0 0 0
22-10-2020 21.6 (17:20) 15.4 (00:00) 18.5 7.22 (17:30) 3.61 (17:30) 10.2 2.2 0.8 7.2 0
21-10-2020 23.5 (17:10) 16.9 (00:00) 20.2 9.44 (02:30) 5.28 (15:20) 2.4 1.2 0 0.8 0.4
20-10-2020 25.9 (15:30) 17.1 (00:00) 21.5 15.56 (18:00) 8.89 (17:40) 11.4 0 0 0 11.4
19-10-2020 29.9 (15:20) 12.3 (00:00) 21.1 9.72 (18:10) 5 (17:10) 0 0 0 0 0
18-10-2020 28.7 (17:20) 9.7 (00:00) 19.2 5.28 (09:20) 2.5 (10:40) 0 0 0 0 0
17-10-2020 25.3 (15:50) 8.7 (00:00) 17 4.72 (15:30) 2.22 (16:10) 0 0 0 0 0
16-10-2020 26.3 (16:00) 9 (00:00) 17.6 4.17 (16:30) 1.67 (09:30) 0 0 0 0 0
15-10-2020 25.5 (15:50) 8.7 (00:00) 17.1 6.11 (20:10) 3.61 (19:10) 0 0 0 0 0
14-10-2020 26.3 (15:50) 11.1 (00:00) 18.7 6.39 (10:40) 3.33 (10:40) 0 0 0 0 0
13-10-2020 29.6 (17:20) 10.4 (00:00) 20 4.17 (20:10) 2.78 (19:30) 0 0 0 0 0
12-10-2020 27.3 (17:50) 15.7 (00:00) 21.5 10.83 (12:00) 4.72 (12:00) 0 0 0 0 0
11-10-2020 30.2 (17:10) 16.8 (00:00) 23.5 6.11 (17:40) 2.78 (17:40) 0 0 0 0 0
10-10-2020 32.1 (17:20) 14.1 (00:00) 23.1 6.67 (19:10) 3.33 (18:50) 0 0 0 0 0
09-10-2020 31.3 (17:50) 15 (00:00) 23.1 3.06 (23:59) 1.67 (19:40) 0 0 0 0 0
08-10-2020 35.2 (16:10) 15.9 (00:00) 25.6 4.72 (21:20) 2.78 (17:40) 0 0 0 0 0
07-10-2020 34.3 (17:00) 15.9 (00:00) 25.1 5.83 (14:30) 2.78 (14:50) 0 0 0 0 0
06-10-2020 30.5 (16:40) 13.6 (00:00) 22.1 6.11 (15:10) 2.78 (17:10) 0 0 0 0 0
05-10-2020 27.3 (16:40) 12.5 (00:00) 19.9 5.56 (02:30) 2.5 (02:20) 0 0 0 0 0
04-10-2020 26.7 (15:40) 10.7 (00:00) 18.7 9.44 (16:20) 4.17 (19:10) 0 0 0 0 0
03-10-2020 26.2 (16:00) 10 (00:00) 18.1 7.78 (13:10) 3.06 (17:50) 0 0 0 0 0
02-10-2020 25.2 (14:20) 15.1 (00:00) 20.2 14.72 (14:40) 7.22 (13:40) 0 0 0 0 0
01-10-2020 30.4 (16:30) 16.7 (08:40) 23.6 9.17 (18:30) 4.44 (18:30) 0 0 0 0 0

Gráficas

Temp. máximas Temp. mínimas Temp. medias Precipitaciones Rachas de viento máximas Velocidades máximas media en intervalos de 10 minutos

Datos horarios

Fecha y hora oficial Temperatura (ºC) Velocidad del viento (km/h) Dirección del viento Racha (km/h) Dirección de racha Precipitación (mm) Presión (hPa) Tendencia (hPa) Humedad (%)
2020-10-30 23:00:00 15.8 4 Norte 8 Norte 0 -- -- 77
2020-10-30 22:00:00 16.3 0 Calma 5 Norte 0 -- -- 76
2020-10-30 21:00:00 17.4 0 Calma 4 Norte 0 -- -- 74
2020-10-30 20:00:00 19 2 Norte 5 Norte 0 -- -- 69
2020-10-30 19:00:00 21.2 3 Norte 6 Norte 0 -- -- 62
2020-10-30 18:00:00 23.6 0 Calma 9 Norte 0 -- -- 54
2020-10-30 17:00:00 24.7 6 Norte 14 Norte 0 -- -- 50
2020-10-30 16:00:00 25.3 6 Norte 15 Norte 0 -- -- 48
2020-10-30 15:00:00 25.9 7 Norte 14 Norte 0 -- -- 46
2020-10-30 14:00:00 26.6 6 Norte 13 Norte 0 -- -- 46
2020-10-30 13:00:00 26.3 5 Norte 13 Norte 0 -- -- 46
2020-10-30 12:00:00 24.2 5 Norte 13 Nordeste 0 -- -- 52
2020-10-30 11:00:00 21.2 7 Norte 16 Nordeste 0 -- -- 58
2020-10-30 10:00:00 19.1 6 Nordeste 16 Norte 0 -- -- 63
2020-10-30 09:00:00 16.4 6 Norte 15 Norte 0 -- -- 72
2020-10-30 08:00:00 14.2 6 Norte 14 Norte 0 -- -- 78
2020-10-30 07:00:00 14.3 5 Norte 10 Norte 0 -- -- 77
2020-10-30 06:00:00 14.3 5 Norte 12 Norte 0 -- -- 78
2020-10-30 05:00:00 14.1 5 Norte 15 Norte 0 -- -- 78
2020-10-30 04:00:00 14.3 6 Norte 11 Norte 0 -- -- 77
2020-10-30 03:00:00 14.3 4 Norte 8 Norte 0 -- -- 77
2020-10-30 02:00:00 14 5 Norte 7 Norte 0 -- -- 78
2020-10-30 01:00:00 14.4 3 Noroeste 8 Norte 0 -- -- 77
2020-10-30 00:00:00 14.7 0 Calma 5 Noroeste 0 -- -- 76
2020-10-29 23:00:00 15.6 2 Noroeste 3 Noroeste 0 -- -- 75
2020-10-29 22:00:00 17 0 Calma 3 Norte 0 -- -- 68
2020-10-29 21:00:00 19 3 Noroeste 6 Noroeste 0 -- -- 60
2020-10-29 20:00:00 21.3 4 Noroeste 9 Norte 0 -- -- 51
2020-10-29 19:00:00 23.6 3 Nordeste 12 Nordeste 0 -- -- 42
2020-10-29 18:00:00 26.1 6 Nordeste 19 Este 0 -- -- 36
2020-10-29 17:00:00 28.4 8 Nordeste 19 Este 0 -- -- 32
2020-10-29 16:00:00 29.3 5 Nordeste 15 Sudeste 0 -- -- 32
2020-10-29 15:00:00 29.2 8 Este 18 Este 0 -- -- 33
2020-10-29 14:00:00 27.7 8 Este 20 Sudeste 0 -- -- 38
2020-10-29 13:00:00 25.6 6 Nordeste 18 Este 0 -- -- 47
2020-10-29 12:00:00 23.9 7 Nordeste 24 Nordeste 0 -- -- 53
2020-10-29 11:00:00 21.3 8 Nordeste 21 Nordeste 0 -- -- 64
2020-10-29 10:00:00 18.6 7 Nordeste 15 Este 0 -- -- 72
2020-10-29 09:00:00 15.7 5 Nordeste 15 Norte 0 -- -- 85
2020-10-29 08:00:00 13.5 4 Norte 10 Nordeste 0 -- -- 91
2020-10-29 07:00:00 14.1 4 Norte 14 Este 0 -- -- 89
2020-10-29 06:00:00 14 4 Nordeste 10 Norte 0 -- -- 93
2020-10-29 05:00:00 13.1 3 Norte 5 Norte 0 -- -- 94
2020-10-29 04:00:00 13.2 0 Calma 5 Norte 0 -- -- 92
2020-10-29 03:00:00 13.7 3 Norte 4 Norte 0 -- -- 91
2020-10-29 02:00:00 13.9 0 Calma 4 Norte 0 -- -- 90
2020-10-29 01:00:00 14.5 3 Norte 6 Norte 0 -- -- 88
2020-10-29 00:00:00 14.8 2 Norte 6 Noroeste 0 -- -- 87
2020-10-28 23:00:00 15.3 3 Noroeste 8 Norte 0 -- -- 84
2020-10-28 22:00:00 15.5 0 Calma -- -- 0 -- -- 84
2020-10-28 21:00:00 16.3 0 Calma -- -- 0 -- -- 80
2020-10-28 20:00:00 17.8 0 Calma 3 Noroeste 0 -- -- 75
2020-10-28 19:00:00 19.6 0 Calma 2 Norte 0 -- -- 69
2020-10-28 18:00:00 22.4 0 Calma 9 Sudeste 0 -- -- 55
2020-10-28 17:00:00 23.7 0 Calma 8 Norte 0 -- -- 51
2020-10-28 16:00:00 24.1 3 Nordeste 12 Norte 0 -- -- 49
2020-10-28 15:00:00 23.5 4 Norte 15 Este 0 -- -- 52
2020-10-28 14:00:00 22.3 6 Nordeste 14 Este 0 -- -- 53
2020-10-28 13:00:00 21.2 6 Norte 15 Norte 0 -- -- 57
2020-10-28 12:00:00 19.2 5 Nordeste 14 Nordeste 0 -- -- 61
2020-10-28 11:00:00 17.4 4 Nordeste 13 Nordeste 0 -- -- 65
2020-10-28 10:00:00 15.2 6 Norte 14 Nordeste 0 -- -- 70
2020-10-28 09:00:00 12.8 3 Norte 10 Norte 0 -- -- 85
2020-10-28 08:00:00 10.4 4 Norte 10 Norte 0 -- -- 90
2020-10-28 07:00:00 10.2 5 Norte 9 Norte 0 -- -- 92
2020-10-28 06:00:00 10.1 3 Norte 6 Norte 0 -- -- 90
2020-10-28 05:00:00 10.8 0 Calma 5 Norte 0 -- -- 86
2020-10-28 04:00:00 11.2 2 Nordeste 7 Norte 0 -- -- 86
2020-10-28 03:00:00 11.1 2 Norte 4 Norte 0 -- -- 84
2020-10-28 02:00:00 11.7 2 Norte 5 Nordeste 0 -- -- 80
2020-10-28 01:00:00 12.2 3 Norte 8 Norte 0 -- -- 77
2020-10-28 00:00:00 12.5 5 Norte 10 Norte 0 -- -- 76
2020-10-27 23:00:00 12.1 3 Noroeste 5 Noroeste 0 -- -- 81
2020-10-27 22:00:00 12.6 0 Calma 2 Sudeste 0 -- -- 76
2020-10-27 21:00:00 13.6 0 Calma 3 Sudoeste 0 -- -- 71
2020-10-27 20:00:00 15 0 Calma 5 Sudoeste 0 -- -- 64
2020-10-27 19:00:00 16.5 2 Sudoeste 5 Sudoeste 0 -- -- 57
2020-10-27 18:00:00 19.1 0 Calma 9 Sudoeste 0 -- -- 46
2020-10-27 17:00:00 21.4 2 Sudoeste 9 Oeste 0 -- -- 37
2020-10-27 16:00:00 21.4 5 Norte 12 Norte 0 -- -- 39
2020-10-27 15:00:00 21.4 5 Norte 13 Norte 0 -- -- 41
2020-10-27 14:00:00 20.6 4 Norte 9 Norte 0 -- -- 46
2020-10-27 13:00:00 19.8 4 Norte 9 Nordeste 0 -- -- 50
2020-10-27 12:00:00 18 3 Nordeste 12 Norte 0 -- -- 58
2020-10-27 11:00:00 16.1 4 Norte 10 Norte 0 -- -- 65
2020-10-27 10:00:00 14.4 5 Norte 10 Norte 0 -- -- 71
2020-10-27 09:00:00 11.2 4 Norte 12 Norte 0 -- -- 86
2020-10-27 08:00:00 8.2 5 Norte 9 Norte 0 -- -- 93
2020-10-27 07:00:00 7.8 2 Norte 4 Noroeste 0 -- -- 92
2020-10-27 06:00:00 8.2 2 Norte 3 Norte 0 -- -- 90
2020-10-27 05:00:00 8.9 0 Calma 5 Noroeste 0 -- -- 87
2020-10-27 04:00:00 9.4 3 Noroeste 6 Norte 0 -- -- 84
2020-10-27 03:00:00 10.3 3 Norte 9 Nordeste 0 -- -- 79
2020-10-27 02:00:00 10.3 3 Norte 8 Norte 0 -- -- 81
2020-10-27 01:00:00 10.6 0 Calma 5 Noroeste 0 -- -- 81
2020-10-27 00:00:00 11.2 2 Norte 4 Norte 0 -- -- 80
2020-10-26 23:00:00 12 0 Calma 5 Noroeste 0 -- -- 73
2020-10-26 22:00:00 13.2 4 Noroeste 8 Noroeste 0 -- -- 68
2020-10-26 21:00:00 14 5 Norte 9 Nordeste 0 -- -- 62
2020-10-26 20:00:00 14.3 2 Norte 6 Este 0 -- -- 66
2020-10-26 19:00:00 16 0 Calma 9 Oeste 0 -- -- 62
2020-10-26 18:00:00 18.5 4 Norte 14 Noroeste 0 -- -- 49
2020-10-26 17:00:00 20.1 7 Norte 20 Norte 0 -- -- 43
2020-10-26 16:00:00 20.6 9 Noroeste 31 Norte 0 -- -- 42
2020-10-26 15:00:00 20.6 12 Norte 22 Norte 0 -- -- 40
2020-10-26 14:00:00 20.7 9 Noroeste 21 Noroeste 0 -- -- 46
2020-10-26 13:00:00 19.2 10 Noroeste 24 Noroeste 0 -- -- 50
2020-10-26 12:00:00 18.4 10 Norte 23 Noroeste 0 -- -- 55
2020-10-26 11:00:00 18 13 Noroeste 26 Noroeste 0 -- -- 59
2020-10-26 10:00:00 16.6 13 Noroeste 21 Noroeste 0 -- -- 64
2020-10-26 09:00:00 14.2 4 Norte 10 Norte 0 -- -- 86
2020-10-26 08:00:00 11.7 2 Oeste 7 Oeste 0 -- -- 91
2020-10-26 07:00:00 12.3 3 Oeste 10 Oeste 0 -- -- 88
2020-10-26 06:00:00 12.6 5 Noroeste 13 Noroeste 0 -- -- 86
2020-10-26 05:00:00 13.3 4 Noroeste 16 Oeste 0 -- -- 85
2020-10-26 04:00:00 14.3 7 Noroeste 18 Noroeste 0 -- -- 85
2020-10-26 03:00:00 14.8 6 Noroeste 16 Oeste 0 -- -- 89
2020-10-26 02:00:00 15.2 8 Noroeste 20 Oeste 0 -- -- 91
2020-10-26 01:00:00 15.8 8 Oeste 22 Oeste 0 -- -- 91
2020-10-26 00:00:00 16 8 Oeste 20 Oeste 0 -- -- 91
2020-10-25 23:00:00 16.9 6 Oeste 25 Oeste 2.4 -- -- 94
2020-10-25 22:00:00 17.6 11 Sudoeste 24 Sudoeste 0 -- -- 93
2020-10-25 21:00:00 17.6 12 Sudoeste 32 Sudoeste 0.4 -- -- 91
2020-10-25 20:00:00 18.9 13 Sudoeste 30 Sudoeste 0 -- -- 80
2020-10-25 19:00:00 19.1 15 Sudoeste 32 Sudoeste 0 -- -- 76
2020-10-25 18:00:00 19.7 15 Sudoeste 35 Sudoeste 0 -- -- 70
2020-10-25 17:00:00 20.2 13 Sudoeste 31 Sudoeste 0 -- -- 67
2020-10-25 16:00:00 21.5 15 Sudoeste 33 Sudoeste 0 -- -- 59
2020-10-25 15:00:00 22 12 Sudoeste 26 Oeste 0 -- -- 58
2020-10-25 14:00:00 21.4 14 Sudoeste 30 Sudoeste 0 -- -- 57
2020-10-25 13:00:00 19.9 9 Sur 23 Sur 0 -- -- 72
2020-10-25 12:00:00 17 6 Sur 13 Sudoeste 0 -- -- 82
2020-10-25 11:00:00 14.1 2 Sudoeste 5 Sudoeste 0 -- -- 98
2020-10-25 10:00:00 12.3 2 Sur 8 Sur 0 -- -- 98
2020-10-25 09:00:00 12.3 3 Sur 7 Sudoeste 0 -- -- 98
2020-10-25 08:00:00 12.3 4 Sur 8 Sudeste 0 -- -- 97
2020-10-25 07:00:00 12.5 0 Calma 4 Noroeste 0 -- -- 98
2020-10-25 06:00:00 12.3 0 Calma 6 Sudoeste 0 -- -- 97
2020-10-25 05:00:00 11.9 2 Sur 6 Sur 0 -- -- 97
2020-10-25 04:00:00 11.7 2 Sudoeste 6 Sur 0 -- -- 95
2020-10-25 03:00:00 12.2 4 Sudoeste 9 Sudoeste 0 -- -- 94
2020-10-25 02:00:00 12.8 4 Sudoeste 9 Sur 0 -- -- 92
2020-10-25 01:00:00 14 2 Sudeste 4 Este 0 -- -- 82
2020-10-25 00:00:00 15.1 0 Calma 9 Oeste 0 -- -- 77
2020-10-24 23:00:00 15.8 2 Oeste 12 Noroeste 0 -- -- 79
2020-10-24 22:00:00 16.3 3 Oeste 9 Oeste 0 -- -- 83
2020-10-24 21:00:00 16.6 3 Sur 6 Sudoeste 0 -- -- 81
2020-10-24 20:00:00 18.6 0 Calma 5 Sur 0 -- -- 73
2020-10-24 19:00:00 20.6 2 Este 8 Sudeste 0 -- -- 63
2020-10-24 18:00:00 22.1 2 Nordeste 10 Sudeste 0 -- -- 57
2020-10-24 17:00:00 22.7 4 Sur 11 Oeste 0 -- -- 56
2020-10-24 16:00:00 22.8 4 Sudoeste 13 Nordeste 0 -- -- 59
2020-10-24 15:00:00 21.7 4 Noroeste 10 Este 0 -- -- 66
2020-10-24 14:00:00 19.4 3 Norte 10 Norte 0 -- -- 78
2020-10-24 13:00:00 16.3 4 Noroeste 9 Norte 0 -- -- 94
2020-10-24 12:00:00 14.9 4 Norte 9 Norte 0 -- -- 96
2020-10-24 11:00:00 14.1 3 Noroeste 6 Noroeste 0 -- -- 97
2020-10-24 10:00:00 13.2 0 Calma 8 Norte 0 -- -- 97
2020-10-24 09:00:00 12.7 4 Nordeste 9 Norte 0 -- -- 96
2020-10-24 08:00:00 12.7 3 Norte 8 Norte 0 -- -- 96
2020-10-24 07:00:00 13.3 4 Noroeste 7 Norte 0 -- -- 96
2020-10-24 06:00:00 12.8 3 Noroeste 5 Norte 0 -- -- 95
2020-10-24 05:00:00 12.9 0 Calma -- -- 0 -- -- 94
2020-10-24 04:00:00 13.4 0 Calma -- -- 0 -- -- 94
2020-10-24 03:00:00 13.8 0 Calma 2 Sudeste 0 -- -- 93
2020-10-24 02:00:00 14.4 0 Calma 0 Calma 0 -- -- 92
2020-10-24 01:00:00 15 0 Calma -- -- 0 -- -- 90
2020-10-24 00:00:00 16 0 Calma 3 Sur 0 -- -- 87
2020-10-23 23:00:00 16.9 2 Sudeste 6 Sudoeste 0 -- -- 82
2020-10-23 22:00:00 18 2 Sudoeste 10 Oeste 0 -- -- 78
2020-10-23 21:00:00 18.9 4 Sudoeste 18 Oeste 0 -- -- 74
2020-10-23 20:00:00 19.7 8 Oeste 18 Sudoeste 0 -- -- 67
2020-10-23 19:00:00 21.2 5 Sur 14 Sudoeste 0 -- -- 60
2020-10-23 18:00:00 22.6 5 Sur 17 Sudoeste 0 -- -- 55
2020-10-23 17:00:00 22.7 4 Sudoeste 17 Sur 0 -- -- 55
2020-10-23 16:00:00 23.2 7 Sudoeste 14 Sudoeste 0 -- -- 52
2020-10-23 15:00:00 21.1 0 Calma 9 Norte 0 -- -- 64
2020-10-23 14:00:00 22.4 3 Nordeste 10 Norte 0 -- -- 59
2020-10-23 13:00:00 21.1 3 Norte 8 Norte 0 -- -- 69
2020-10-23 12:00:00 19 5 Norte 12 Noroeste 0 -- -- 78
2020-10-23 11:00:00 16.3 4 Norte 10 Noroeste 0 -- -- 90
2020-10-23 10:00:00 13.9 0 Calma 6 Norte 0 -- -- 98
2020-10-23 09:00:00 11.1 3 Noroeste 6 Norte 0 -- -- 97
2020-10-23 08:00:00 11.3 0 Calma 0 Calma 0 -- -- 97
2020-10-23 07:00:00 11.6 0 Calma 0 Calma 0 -- -- 96
2020-10-23 06:00:00 12.2 0 Calma 3 Sudoeste 0 -- -- 96
2020-10-23 05:00:00 12.6 2 Sudoeste 4 Sudoeste 0 -- -- 96
2020-10-23 04:00:00 13.2 0 Calma 3 Sudeste 0 -- -- 95
2020-10-23 03:00:00 13.8 0 Calma 5 Sudoeste 0 -- -- 95
2020-10-23 02:00:00 14.2 3 Sudeste 6 Sudeste 0 -- -- 95
2020-10-23 01:00:00 14.7 2 Sur 6 Sudeste 0 -- -- 93
2020-10-23 00:00:00 15.4 0 Calma 9 Sudoeste 0 -- -- 91
2020-10-22 23:00:00 16.3 4 Sudoeste 13 Sudoeste 0 -- -- 87
2020-10-22 22:00:00 17 6 Sudoeste 17 Sudoeste 0 -- -- 85
2020-10-22 21:00:00 17.6 6 Sudoeste 13 Sudoeste 0 -- -- 84
2020-10-22 20:00:00 18.7 8 Sudoeste 21 Sudoeste 0 -- -- 80
2020-10-22 19:00:00 20.1 10 Sudoeste 23 Sudoeste 0 -- -- 73
2020-10-22 18:00:00 21.2 13 Sudoeste 26 Sudoeste 0 -- -- 70
2020-10-22 17:00:00 20.3 3 Sudeste 11 Noroeste 0 -- -- 82
2020-10-22 16:00:00 20.1 0 Calma 7 Norte 0.4 -- -- 87
2020-10-22 15:00:00 18.1 3 Norte 17 Sudoeste 1.4 -- -- 94
2020-10-22 14:00:00 18.1 6 Sudoeste 17 Sur 5.2 -- -- 91
2020-10-22 13:00:00 19.6 8 Sur 15 Sudoeste 0.2 -- -- 88
2020-10-22 12:00:00 18.3 2 Sudoeste 6 Oeste 0.8 -- -- 94
2020-10-22 11:00:00 16.9 3 Sudoeste 6 Sudeste 0 -- -- 95
2020-10-22 10:00:00 16.3 0 Calma 3 Oeste 0 -- -- 95
2020-10-22 09:00:00 16 0 Calma 5 Sur 0 -- -- 94
2020-10-22 08:00:00 16.4 4 Sur 14 Sudoeste 0 -- -- 94
2020-10-22 07:00:00 16.9 5 Sur 17 Sur 0 -- -- 94
2020-10-22 06:00:00 16.7 7 Sudoeste 23 Sudoeste 0 -- -- 94
2020-10-22 05:00:00 16.9 5 Sur 10 Sur 0 -- -- 95
2020-10-22 04:00:00 17.1 2 Noroeste 9 Norte 0 -- -- 94
2020-10-22 03:00:00 17.3 4 Norte 9 Norte 0.2 -- -- 94
2020-10-22 02:00:00 17.6 7 Sudoeste 17 Sudoeste 1.8 -- -- 92
2020-10-22 01:00:00 18.1 5 Sur 15 Sudoeste 0.2 -- -- 92
2020-10-22 00:00:00 18.3 5 Sudoeste 10 Sudoeste 0 -- -- 92
2020-10-21 23:00:00 18.1 3 Sur 10 Sur 0.2 -- -- 92
2020-10-21 22:00:00 18 5 Sur 9 Sur 0 -- -- 91
2020-10-21 21:00:00 18.1 6 Sur 25 Sudoeste 0.2 -- -- 88
2020-10-21 20:00:00 19.4 6 Sur 23 Sudoeste 0 -- -- 77
2020-10-21 19:00:00 20.7 10 Sur 29 Sudoeste 0 -- -- 79
2020-10-21 18:00:00 22.3 15 Sur 31 Sur 0 -- -- 65
2020-10-21 17:00:00 23.2 15 Sudoeste 29 Sudoeste 0 -- -- 59
2020-10-21 16:00:00 22.5 18 Sur 32 Sur 0 -- -- 66
2020-10-21 15:00:00 21.9 14 Sur 30 Sudoeste 0.8 -- -- 77
2020-10-21 14:00:00 22.2 9 Sudoeste 28 Sur 0 -- -- 72
2020-10-21 13:00:00 21.2 9 Sudoeste 19 Sudoeste 0 -- -- 81
2020-10-21 12:00:00 19.7 6 Sur 13 Sur 0 -- -- 88
2020-10-21 11:00:00 18 4 Sur 11 Sur 0 -- -- 95
2020-10-21 10:00:00 17.5 4 Sur 10 Sur 0 -- -- 96
2020-10-21 09:00:00 17.1 4 Sur 11 Sur 0 -- -- 95
2020-10-21 08:00:00 16.9 6 Sur 15 Sur 0 -- -- 94
2020-10-21 07:00:00 17.1 9 Sudoeste 19 Sudoeste 0 -- -- 93
2020-10-21 06:00:00 17.3 12 Sur 22 Sudoeste 0 -- -- 94
2020-10-21 05:00:00 17.7 10 Sur 24 Sudoeste 0.8 -- -- 94
2020-10-21 04:00:00 18 10 Sur 21 Sudoeste 0.4 -- -- 95
2020-10-21 03:00:00 18.3 7 Sur 34 Sur 0 -- -- 95
2020-10-21 02:00:00 18 12 Sur 23 Sur 0 -- -- 95
2020-10-21 01:00:00 17.9 6 Sur 22 Sudoeste 0 -- -- 94
2020-10-21 00:00:00 17.8 15 Sur 25 Sur 0 -- -- 94
2020-10-20 23:00:00 17.2 13 Sur 29 Sudoeste 0.4 -- -- 94
2020-10-20 22:00:00 17.5 16 Sudoeste 51 Sudoeste 6.4 -- -- 91
2020-10-20 21:00:00 18.9 19 Sur 45 Sudeste 1.8 -- -- 90
2020-10-20 20:00:00 19.6 13 Sur 29 Sudeste 0.8 -- -- 84
2020-10-20 19:00:00 19.8 14 Sur 50 Sur 2 -- -- 82
2020-10-20 18:00:00 24.4 29 Sur 56 Sudoeste 0 -- -- 52
2020-10-20 17:00:00 25 23 Sur 46 Sudoeste 0 -- -- 47
2020-10-20 16:00:00 25.6 22 Sur 36 Sur 0 -- -- 46
2020-10-20 15:00:00 25.5 18 Sur 42 Sudoeste 0 -- -- 46
2020-10-20 14:00:00 24.9 19 Sur 37 Sur 0 -- -- 49
2020-10-20 13:00:00 24.3 18 Sur 35 Sur 0 -- -- 52
2020-10-20 12:00:00 23.8 13 Sur 31 Sur 0 -- -- 53
2020-10-20 11:00:00 22.2 15 Sur 33 Sudoeste 0 -- -- 59
2020-10-20 10:00:00 21.4 14 Sur 26 Sur 0 -- -- 60
2020-10-20 09:00:00 20.6 10 Sur 20 Sur 0 -- -- 63
2020-10-20 08:00:00 20.9 9 Sur 21 Sur 0 -- -- 61
2020-10-20 07:00:00 20.8 4 Sur 18 Sudoeste 0 -- -- 60
2020-10-20 06:00:00 20.7 8 Sur 18 Sur 0 -- -- 59
2020-10-20 05:00:00 19.7 6 Sur 14 Sur 0 -- -- 62
2020-10-20 04:00:00 18.5 2 Sudoeste 5 Oeste 0 -- -- 66
2020-10-20 03:00:00 18.7 3 Sur 8 Sur 0 -- -- 66
2020-10-20 02:00:00 18.9 3 Sur 10 Sur 0 -- -- 64
2020-10-20 01:00:00 19.3 5 Sur 20 Sudoeste 0 -- -- 62
2020-10-20 00:00:00 19.5 8 Sudoeste 27 Sur 0 -- -- 60
2020-10-19 23:00:00 20 13 Sur 26 Sur 0 -- -- 56
2020-10-19 22:00:00 21.1 12 Sudoeste 26 Sudoeste 0 -- -- 57
2020-10-19 21:00:00 21.8 10 Sudoeste 24 Oeste 0 -- -- 60
2020-10-19 20:00:00 23 12 Oeste 30 Oeste 0 -- -- 55
2020-10-19 19:00:00 25.4 14 Oeste 35 Sudoeste 0 -- -- 43
2020-10-19 18:00:00 27.3 17 Sudoeste 35 Sudoeste 0 -- -- 33
2020-10-19 17:00:00 28.2 15 Sudoeste 27 Sudoeste 0 -- -- 29
2020-10-19 16:00:00 29.8 8 Sudoeste 21 Sudoeste 0 -- -- 29
2020-10-19 15:00:00 29.7 8 Sudoeste 15 Oeste 0 -- -- 28
2020-10-19 14:00:00 28 4 Noroeste 10 Norte 0 -- -- 30
2020-10-19 13:00:00 26.7 3 Norte 10 Nordeste 0 -- -- 30
2020-10-19 12:00:00 22.8 4 Nordeste 12 Norte 0 -- -- 37
2020-10-19 11:00:00 19.1 6 Norte 12 Norte 0 -- -- 44
2020-10-19 10:00:00 15.5 4 Norte 14 Norte 0 -- -- 50
2020-10-19 09:00:00 12.7 5 Norte 10 Norte 0 -- -- 55
2020-10-19 08:00:00 12.9 3 Norte 11 Norte 0 -- -- 54
2020-10-19 07:00:00 12.7 4 Norte 10 Norte 0 -- -- 53
2020-10-19 06:00:00 12.5 3 Norte 7 Norte 0 -- -- 54
2020-10-19 05:00:00 13.2 3 Norte 8 Noroeste 0 -- -- 51
2020-10-19 04:00:00 13.6 4 Norte 9 Norte 0 -- -- 50
2020-10-19 03:00:00 13.8 4 Norte 8 Norte 0 -- -- 53
2020-10-19 02:00:00 15 3 Noroeste 13 Norte 0 -- -- 53
2020-10-19 01:00:00 15.1 5 Norte 9 Norte 0 -- -- 57
2020-10-19 00:00:00 16.5 0 Calma 4 Sudeste 0 -- -- 59
2020-10-18 23:00:00 18 2 Sur 7 Sudoeste 0 -- -- 52
2020-10-18 22:00:00 19.4 2 Sur 9 Sur 0 -- -- 44
2020-10-18 21:00:00 19.5 3 Sudoeste 8 Sur 0 -- -- 47
2020-10-18 20:00:00 22.7 0 Calma 5 Este 0 -- -- 43
2020-10-18 19:00:00 26.4 3 Sudeste 14 Este 0 -- -- 31
2020-10-18 18:00:00 28.2 5 Sudeste 13 Noroeste 0 -- -- 28
2020-10-18 17:00:00 28.6 4 Noroeste 13 Norte 0 -- -- 30
2020-10-18 16:00:00 28.5 4 Norte 10 Sudeste 0 -- -- 32
2020-10-18 15:00:00 27.3 5 Nordeste 13 Noroeste 0 -- -- 33
2020-10-18 14:00:00 25.3 7 Norte 15 Norte 0 -- -- 36
2020-10-18 13:00:00 23.7 6 Norte 14 Norte 0 -- -- 37
2020-10-18 12:00:00 20.8 7 Norte 15 Norte 0 -- -- 43
2020-10-18 11:00:00 17.4 4 Norte 19 Norte 0 -- -- 50
2020-10-18 10:00:00 13.3 5 Norte 19 Nordeste 0 -- -- 61
2020-10-18 09:00:00 11.1 5 Norte 18 Norte 0 -- -- 69
2020-10-18 08:00:00 10.1 7 Norte 13 Norte 0 -- -- 74
2020-10-18 07:00:00 9.8 5 Norte 9 Norte 0 -- -- 78
2020-10-18 06:00:00 9.9 4 Norte 8 Noroeste 0 -- -- 78
2020-10-18 05:00:00 10.1 2 Norte 6 Noroeste 0 -- -- 77
2020-10-18 04:00:00 10.9 0 Calma 5 Oeste 0 -- -- 81
2020-10-18 03:00:00 11.7 0 Calma 6 Sudoeste 0 -- -- 77
2020-10-18 02:00:00 12.6 2 Oeste 4 Sudoeste 0 -- -- 71
2020-10-18 01:00:00 13.8 0 Calma 5 Norte 0 -- -- 62
2020-10-18 00:00:00 15 3 Este 7 Norte 0 -- -- 64
2020-10-17 23:00:00 15.8 2 Noroeste 10 Noroeste 0 -- -- 60
2020-10-17 22:00:00 16.7 4 Sudeste 12 Oeste 0 -- -- 57
2020-10-17 21:00:00 17.9 6 Oeste 13 Sudoeste 0 -- -- 55
2020-10-17 20:00:00 19.5 0 Calma 6 Oeste 0 -- -- 46
2020-10-17 19:00:00 22.4 0 Calma 8 Sudeste 0 -- -- 38
2020-10-17 18:00:00 24.2 4 Sudeste 12 Sur 0 -- -- 31
2020-10-17 17:00:00 24.8 7 Sudoeste 13 Sur 0 -- -- 32
2020-10-17 16:00:00 25.2 5 Sur 17 Sudeste 0 -- -- 32
2020-10-17 15:00:00 24.8 6 Sudeste 11 Sur 0 -- -- 34
2020-10-17 14:00:00 23.2 5 Sudoeste 11 Sudoeste 0 -- -- 40
2020-10-17 13:00:00 21.5 3 Este 9 Sur 0 -- -- 48
2020-10-17 12:00:00 19.3 3 Norte 7 Norte 0 -- -- 57
2020-10-17 11:00:00 16.5 2 Norte 8 Norte 0 -- -- 60
2020-10-17 10:00:00 12.3 4 Norte 7 Noroeste 0 -- -- 73
2020-10-17 09:00:00 8.7 4 Noroeste 10 Norte 0 -- -- 85
2020-10-17 08:00:00 8.8 4 Norte 8 Noroeste 0 -- -- 90
2020-10-17 07:00:00 9.2 0 Calma 3 Noroeste 0 -- -- 91
2020-10-17 06:00:00 9.9 0 Calma 3 Noroeste 0 -- -- 91
2020-10-17 05:00:00 10.4 0 Calma 2 Sudeste 0 -- -- 91
2020-10-17 04:00:00 11 0 Calma 5 Sur 0 -- -- 90
2020-10-17 03:00:00 11.4 0 Calma 6 Sudoeste 0 -- -- 89
2020-10-17 02:00:00 12.1 2 Sudoeste 6 Sudoeste 0 -- -- 86
2020-10-17 01:00:00 12.9 2 Sur 9 Sur 0 -- -- 81
2020-10-17 00:00:00 14.3 2 Sur 9 Sudoeste 0 -- -- 70
2020-10-16 23:00:00 15.6 0 Calma 8 Sudeste 0 -- -- 56
2020-10-16 22:00:00 17.3 3 Sudoeste 10 Sudoeste 0 -- -- 49
2020-10-16 21:00:00 18.9 4 Sudoeste 12 Sudoeste 0 -- -- 45
2020-10-16 20:00:00 20.6 3 Sudoeste 8 Sur 0 -- -- 36
2020-10-16 19:00:00 22.8 4 Sur 9 Sudoeste 0 -- -- 31
2020-10-16 18:00:00 24.7 3 Norte 11 Sudoeste 0 -- -- 29
2020-10-16 17:00:00 25.6 5 Sudoeste 15 Sudoeste 0 -- -- 28
2020-10-16 16:00:00 26.3 3 Oeste 8 Oeste 0 -- -- 28
2020-10-16 15:00:00 24.7 3 Este 10 Sudoeste 0 -- -- 31
2020-10-16 14:00:00 23.4 4 Sur 11 Sur 0 -- -- 36
2020-10-16 13:00:00 22.3 5 Este 11 Este 0 -- -- 42
2020-10-16 12:00:00 19.8 3 Nordeste 10 Norte 0 -- -- 45
2020-10-16 11:00:00 16.4 5 Nordeste 11 Norte 0 -- -- 53
2020-10-16 10:00:00 12.9 5 Norte 10 Norte 0 -- -- 65
2020-10-16 09:00:00 9.6 5 Norte 10 Norte 0 -- -- 75
2020-10-16 08:00:00 9.6 5 Norte 11 Norte 0 -- -- 78
2020-10-16 07:00:00 9.2 3 Norte 6 Noroeste 0 -- -- 83
2020-10-16 06:00:00 9.8 0 Calma 6 Norte 0 -- -- 81
2020-10-16 05:00:00 10.2 2 Norte 8 Norte 0 -- -- 82
2020-10-16 04:00:00 10.7 0 Calma 4 Norte 0 -- -- 86
2020-10-16 03:00:00 11.3 0 Calma 3 Sudoeste 0 -- -- 86
2020-10-16 02:00:00 11.8 0 Calma 3 Oeste 0 -- -- 81
2020-10-16 01:00:00 12.9 0 Calma 2 Sur 0 -- -- 76
2020-10-16 00:00:00 14.2 0 Calma 8 Sudoeste 0 -- -- 71
2020-10-15 23:00:00 15.2 2 Sudoeste 9 Sudeste 0 -- -- 65
2020-10-15 22:00:00 16.5 3 Sur 21 Oeste 0 -- -- 55
2020-10-15 21:00:00 17.8 9 Sudoeste 22 Sudoeste 0 -- -- 44
2020-10-15 20:00:00 19.8 9 Sudoeste 21 Sudoeste 0 -- -- 39
2020-10-15 19:00:00 22 12 Sur 20 Sur 0 -- -- 34
2020-10-15 18:00:00 24.3 6 Sur 17 Sudoeste 0 -- -- 28
2020-10-15 17:00:00 25.1 5 Oeste 15 Sudoeste 0 -- -- 26
2020-10-15 16:00:00 25.4 6 Oeste 16 Oeste 0 -- -- 28
2020-10-15 15:00:00 25.3 4 Norte 11 Oeste 0 -- -- 28
2020-10-15 14:00:00 24.2 6 Norte 12 Noroeste 0 -- -- 29
2020-10-15 13:00:00 23 3 Sur 12 Sur 0 -- -- 34
2020-10-15 12:00:00 20.9 4 Este 8 Nordeste 0 -- -- 39
2020-10-15 11:00:00 16.9 0 Calma 4 Sudoeste 0 -- -- 53
2020-10-15 10:00:00 12.4 2 Sudoeste 5 Sudoeste 0 -- -- 72
2020-10-15 09:00:00 8.7 0 Calma 5 Sudoeste 0 -- -- 85
2020-10-15 08:00:00 8.9 2 Sudoeste 4 Sudoeste 0 -- -- 81
2020-10-15 07:00:00 9.4 0 Calma 5 Sur 0 -- -- 79
2020-10-15 06:00:00 9.8 0 Calma 4 Sudoeste 0 -- -- 78
2020-10-15 05:00:00 10.8 2 Sudoeste 5 Norte 0 -- -- 65
2020-10-15 04:00:00 11.9 2 Norte 11 Noroeste 0 -- -- 56
2020-10-15 03:00:00 11.6 2 Noroeste 5 Noroeste 0 -- -- 72
2020-10-15 02:00:00 12.8 0 Calma 7 Sur 0 -- -- 62
2020-10-15 01:00:00 13.6 3 Sudoeste 6 Sudoeste 0 -- -- 56
2020-10-15 00:00:00 15.6 0 Calma 11 Noroeste 0 -- -- 42
2020-10-14 23:00:00 17.2 3 Norte 16 Norte 0 -- -- 37
2020-10-14 22:00:00 18.1 3 Norte 13 Norte 0 -- -- 36
2020-10-14 21:00:00 20.1 5 Norte 12 Norte 0 -- -- 33
2020-10-14 20:00:00 21.8 5 Norte 21 Norte 0 -- -- 30
2020-10-14 19:00:00 23.6 8 Norte 17 Norte 0 -- -- 29
2020-10-14 18:00:00 25.1 9 Sudoeste 19 Sudoeste 0 -- -- 31
2020-10-14 17:00:00 26.2 6 Oeste 22 Oeste 0 -- -- 31
2020-10-14 16:00:00 26 6 Sur 18 Noroeste 0 -- -- 30
2020-10-14 15:00:00 25.7 6 Noroeste 18 Noroeste 0 -- -- 35
2020-10-14 14:00:00 24.4 8 Noroeste 14 Noroeste 0 -- -- 37
2020-10-14 13:00:00 23 8 Norte 17 Norte 0 -- -- 41
2020-10-14 12:00:00 21.7 8 Noroeste 12 Norte 0 -- -- 47
2020-10-14 11:00:00 18.4 7 Norte 23 Norte 0 -- -- 56
2020-10-14 10:00:00 15.9 8 Norte 18 Norte 0 -- -- 63
2020-10-14 09:00:00 12.1 5 Norte 12 Norte 0 -- -- 77
2020-10-14 08:00:00 11.2 2 Norte 8 Noroeste 0 -- -- 83
2020-10-14 07:00:00 11.3 0 Calma 3 Nordeste 0 -- -- 86
2020-10-14 06:00:00 11.7 0 Calma 5 Sur 0 -- -- 84
2020-10-14 05:00:00 12.6 2 Sudoeste 6 Sudoeste 0 -- -- 82
2020-10-14 04:00:00 13.1 2 Sur 8 Sudoeste 0 -- -- 80
2020-10-14 03:00:00 13.6 2 Sur 9 Sur 0 -- -- 75
2020-10-14 02:00:00 14.3 4 Sur 10 Sudoeste 0 -- -- 72
2020-10-14 01:00:00 15 5 Sudoeste 12 Sudoeste 0 -- -- 65
2020-10-14 00:00:00 16.6 5 Sur 11 Sur 0 -- -- 52
2020-10-13 23:00:00 18.4 7 Sur 13 Oeste 0 -- -- 41
2020-10-13 22:00:00 19.4 5 Sudeste 9 Oeste 0 -- -- 38
2020-10-13 21:00:00 21 5 Sur 15 Sur 0 -- -- 40
2020-10-13 20:00:00 24 7 Sur 15 Sudoeste 0 -- -- 33
2020-10-13 19:00:00 26.8 5 Sur 12 Sudoeste 0 -- -- 25
2020-10-13 18:00:00 29.2 4 Sur 9 Nordeste 0 -- -- 22
2020-10-13 17:00:00 29.4 3 Sudeste 12 Nordeste 0 -- -- 21
2020-10-13 16:00:00 29.1 5 Norte 15 Norte 0 -- -- 24
2020-10-13 15:00:00 28.9 3 Norte 10 Norte 0 -- -- 26
2020-10-13 14:00:00 26.9 4 Este 12 Sudeste 0 -- -- 25
2020-10-13 13:00:00 25.1 6 Este 15 Nordeste 0 -- -- 27
2020-10-13 12:00:00 22.8 4 Norte 11 Norte 0 -- -- 35
2020-10-13 11:00:00 -- -- -- -- -- -- -- -- --
2020-10-13 10:00:00 -- -- -- -- -- -- -- -- --
2020-10-13 09:00:00 10.6 4 Norte 6 Nordeste 0 -- -- 64
2020-10-13 08:00:00 10.9 0 Calma 7 Este 0 -- -- 59
2020-10-13 07:00:00 11.3 0 Calma 6 Norte 0 -- -- 56
2020-10-13 06:00:00 11.6 3 Norte 5 Norte 0 -- -- 54
2020-10-13 05:00:00 12.5 0 Calma 4 Norte 0 -- -- 51
2020-10-13 04:00:00 14.1 2 Norte 8 Norte 0 -- -- 45
2020-10-13 03:00:00 14.2 3 Norte 10 Norte 0 -- -- 43
2020-10-13 02:00:00 14.1 3 Norte 5 Norte 0 -- -- 45
2020-10-13 01:00:00 -- -- -- -- -- -- -- -- --
2020-10-13 00:00:00 16.8 2 Nordeste 8 Este 0 -- -- 40
2020-10-12 23:00:00 18.2 4 Nordeste 9 Norte 0 -- -- 37
2020-10-12 22:00:00 17.8 3 Norte 8 Nordeste 0 -- -- 39
2020-10-12 21:00:00 19.5 0 Calma 6 Este 0 -- -- 36
2020-10-12 20:00:00 22.8 4 Nordeste 8 Este 0 -- -- 29
2020-10-12 19:00:00 25.3 4 Este 13 Nordeste 0 -- -- 22
2020-10-12 18:00:00 27.1 6 Nordeste 18 Este 0 -- -- 20
2020-10-12 17:00:00 27.2 7 Nordeste 22 Este 0 -- -- 20
2020-10-12 16:00:00 26.3 12 Nordeste 25 Este 0 -- -- 23
2020-10-12 15:00:00 25.8 10 Nordeste 28 Este 0 -- -- 26
2020-10-12 14:00:00 24.3 14 Nordeste 31 Nordeste 0 -- -- 28
2020-10-12 13:00:00 23.1 13 Nordeste 28 Este 0 -- -- 29
2020-10-12 12:00:00 21.2 17 Este 39 Este 0 -- -- 32
2020-10-12 11:00:00 19.8 13 Nordeste 35 Este 0 -- -- 34
2020-10-12 10:00:00 18 10 Nordeste 22 Este 0 -- -- 39
2020-10-12 09:00:00 16 9 Nordeste 21 Norte 0 -- -- 41
2020-10-12 08:00:00 15.7 5 Nordeste 22 Este 0 -- -- 41
2020-10-12 07:00:00 16.1 5 Nordeste 18 Nordeste 0 -- -- 38
2020-10-12 06:00:00 16.9 8 Nordeste 19 Nordeste 0 -- -- 36
2020-10-12 05:00:00 17.8 8 Nordeste 18 Este 0 -- -- 34
2020-10-12 04:00:00 -- -- -- -- -- -- -- -- --
2020-10-12 03:00:00 19 6 Nordeste 17 Norte 0 -- -- 32
2020-10-12 02:00:00 19.7 6 Nordeste 12 Nordeste 0 -- -- 31
2020-10-12 01:00:00 20.9 8 Este 19 Este 0 -- -- 29
2020-10-12 00:00:00 20.6 4 Nordeste 12 Nordeste 0 -- -- 42
2020-10-11 23:00:00 20.9 3 Norte 10 Norte 0 -- -- 50
2020-10-11 22:00:00 21 3 Nordeste 9 Nordeste 0 -- -- 54
2020-10-11 21:00:00 -- -- -- -- -- -- -- -- --
2020-10-11 20:00:00 -- -- -- -- -- -- -- -- --
2020-10-11 19:00:00 28.5 5 Este 13 Este 0 -- -- 35
2020-10-11 18:00:00 30.2 5 Este 22 Este 0 -- -- 35
2020-10-11 17:00:00 30 6 Nordeste 14 Nordeste 0 -- -- 40
2020-10-11 16:00:00 29.5 7 Este 16 Este 0 -- -- 44
2020-10-11 15:00:00 28.3 6 Nordeste 15 Este 0 -- -- 48
2020-10-11 14:00:00 26.9 5 Nordeste 16 Nordeste 0 -- -- 54
2020-10-11 13:00:00 25 3 Nordeste 15 Norte 0 -- -- 60
2020-10-11 12:00:00 22.7 6 Norte 16 Norte 0 -- -- 71
2020-10-11 11:00:00 19.5 7 Norte 13 Norte 0 -- -- 82
2020-10-11 10:00:00 17.5 5 Norte 10 Norte 0 -- -- 88
2020-10-11 09:00:00 17.5 5 Norte 11 Norte 0 -- -- 92
2020-10-11 08:00:00 18.3 3 Oeste 6 Sudoeste 0 -- -- 96
2020-10-11 07:00:00 18 0 Calma 9 Oeste 0 -- -- 97
2020-10-11 06:00:00 17.6 3 Sur 7 Sudoeste 0 -- -- 96
2020-10-11 05:00:00 17.1 4 Sudoeste 9 Sudoeste 0 -- -- 95
2020-10-11 04:00:00 17 3 Sur 8 Sudoeste 0 -- -- 94
2020-10-11 03:00:00 16.9 3 Sur 11 Sur 0 -- -- 90
2020-10-11 02:00:00 17.3 3 Sur 10 Sudoeste 0 -- -- 86
2020-10-11 01:00:00 18 4 Sur 12 Sur 0 -- -- 82
2020-10-11 00:00:00 19 5 Sur 10 Sur 0 -- -- 74
2020-10-10 23:00:00 20.6 3 Sur 10 Sur 0 -- -- 65
2020-10-10 22:00:00 22.9 4 Sudoeste 9 Sur 0 -- -- 56
2020-10-10 21:00:00 24.5 4 Sur 15 Oeste 0 -- -- 51
2020-10-10 20:00:00 26.4 10 Oeste 24 Oeste 0 -- -- 47
2020-10-10 19:00:00 28.8 10 Sudoeste 23 Sudoeste 0 -- -- 43
2020-10-10 18:00:00 31.3 8 Sur 17 Sudeste 0 -- -- 36
2020-10-10 17:00:00 31.9 6 Sudoeste 14 Oeste 0 -- -- 31
2020-10-10 16:00:00 31.5 6 Sudoeste 16 Noroeste 0 -- -- 33
2020-10-10 15:00:00 30.6 3 Nordeste 10 Noroeste 0 -- -- 37
2020-10-10 14:00:00 28.9 3 Norte 10 Norte 0 -- -- 42
2020-10-10 13:00:00 26.8 5 Sur 9 Sur 0 -- -- 46
2020-10-10 12:00:00 25.2 3 Nordeste 9 Sudeste 0 -- -- 53
2020-10-10 11:00:00 22.2 4 Norte 10 Noroeste 0 -- -- 59
2020-10-10 10:00:00 18.2 4 Norte 9 Norte 0 -- -- 69
2020-10-10 09:00:00 14.3 4 Norte 6 Norte 0 -- -- 84
2020-10-10 08:00:00 14.3 4 Noroeste 6 Norte 0 -- -- 86
2020-10-10 07:00:00 14.9 0 Calma 3 Sudoeste 0 -- -- 88
2020-10-10 06:00:00 15 0 Calma 3 Oeste 0 -- -- 86
2020-10-10 05:00:00 15.3 0 Calma 3 Sur 0 -- -- 84
2020-10-10 04:00:00 15.9 0 Calma 6 Sudeste 0 -- -- 82
2020-10-10 03:00:00 16.1 3 Sur 6 Sur 0 -- -- 79
2020-10-10 02:00:00 16.5 4 Sur 8 Sudeste 0 -- -- 75
2020-10-10 01:00:00 17.8 4 Sur 12 Sudoeste 0 -- -- 68
2020-10-10 00:00:00 20.6 5 Sur 11 Sur 0 -- -- 58
2020-10-09 23:00:00 22.1 0 Calma 6 Noroeste 0 -- -- 52
2020-10-09 22:00:00 22.4 2 Oeste 6 Oeste 0 -- -- 55
2020-10-09 21:00:00 24.5 2 Sudoeste 8 Sudoeste 0 -- -- 50
2020-10-09 20:00:00 26.9 3 Sur 10 Sudoeste 0 -- -- 45
2020-10-09 19:00:00 29.3 2 Oeste 8 Noroeste 0 -- -- 33
2020-10-09 18:00:00 31.2 4 Noroeste 10 Oeste 0 -- -- 33
2020-10-09 17:00:00 30.2 3 Oeste 8 Noroeste 0 -- -- 36
2020-10-09 16:00:00 30.6 3 Este 10 Norte 0 -- -- 32
2020-10-09 15:00:00 30.5 3 Nordeste 10 Nordeste 0 -- -- 33
2020-10-09 14:00:00 30.1 5 Nordeste 8 Norte 0 -- -- 36
2020-10-09 13:00:00 28.1 3 Norte 8 Norte 0 -- -- 39
2020-10-09 12:00:00 25.3 4 Norte 8 Norte 0 -- -- 44
2020-10-09 11:00:00 20.7 5 Norte 9 Norte 0 -- -- 56
2020-10-09 10:00:00 17.8 5 Norte 10 Norte 0 -- -- 64
2020-10-09 09:00:00 15.1 5 Noroeste 7 Norte 0 -- -- 72
2020-10-09 08:00:00 15.1 4 Noroeste 6 Norte 0 -- -- 71
2020-10-09 07:00:00 15.6 3 Norte 6 Noroeste 0 -- -- 68
2020-10-09 06:00:00 16.1 2 Norte 5 Norte 0 -- -- 70
2020-10-09 05:00:00 17.2 3 Sudoeste 5 Sudoeste 0 -- -- 67
2020-10-09 04:00:00 18.1 0 Calma 7 Sur 0 -- -- 63
2020-10-09 03:00:00 18.8 3 Sudeste 5 Sur 0 -- -- 59
2020-10-09 02:00:00 19.5 0 Calma 4 Sudeste 0 -- -- 58
2020-10-09 01:00:00 20.7 3 Sur 6 Noroeste 0 -- -- 54
2020-10-09 00:00:00 22.9 3 Sur 9 Sudoeste 0 -- -- 45
2020-10-08 23:00:00 23.9 5 Oeste 12 Sudoeste 0 -- -- 44
2020-10-08 22:00:00 25.5 5 Sudoeste 17 Oeste 0 -- -- 40
2020-10-08 21:00:00 26.5 7 Oeste 16 Oeste 0 -- -- 39
2020-10-08 20:00:00 28.2 3 Oeste 8 Noroeste 0 -- -- 36
2020-10-08 19:00:00 31 3 Noroeste 15 Oeste 0 -- -- 31
2020-10-08 18:00:00 33.3 7 Noroeste 17 Noroeste 0 -- -- 27
2020-10-08 17:00:00 34.4 8 Noroeste 15 Noroeste 0 -- -- 26
2020-10-08 16:00:00 35.1 7 Noroeste 14 Noroeste 0 -- -- 25
2020-10-08 15:00:00 34 5 Norte 10 Norte 0 -- -- 26
2020-10-08 14:00:00 32.3 4 Norte 10 Noroeste 0 -- -- 31
2020-10-08 13:00:00 30.7 4 Norte 11 Noroeste 0 -- -- 34
2020-10-08 12:00:00 28 6 Nordeste 15 Nordeste 0 -- -- 37
2020-10-08 11:00:00 24.3 7 Nordeste 13 Norte 0 -- -- 42
2020-10-08 10:00:00 20.5 7 Norte 13 Noroeste 0 -- -- 51
2020-10-08 09:00:00 16.9 6 Norte 12 Norte 0 -- -- 59
2020-10-08 08:00:00 16.1 5 Norte 10 Norte 0 -- -- 61
2020-10-08 07:00:00 15.9 4 Norte 12 Noroeste 0 -- -- 61
2020-10-08 06:00:00 16.5 6 Norte 12 Noroeste 0 -- -- 60
2020-10-08 05:00:00 16 5 Norte 8 Norte 0 -- -- 64
2020-10-08 04:00:00 16.5 0 Calma 2 Sudoeste 0 -- -- 68
2020-10-08 03:00:00 17.4 0 Calma 6 Noroeste 0 -- -- 62
2020-10-08 02:00:00 18.3 2 Sudoeste 10 Sur 0 -- -- 68
2020-10-08 01:00:00 19 2 Nordeste 8 Oeste 0 -- -- 67
2020-10-08 00:00:00 20.2 0 Calma 7 Sudeste 0 -- -- 62
2020-10-07 23:00:00 21.5 4 Sudeste 11 Sudoeste 0 -- -- 52
2020-10-07 22:00:00 22.7 2 Noroeste 4 Noroeste 0 -- -- 52
2020-10-07 21:00:00 25.2 0 Calma 4 Noroeste 0 -- -- 44
2020-10-07 20:00:00 28.5 3 Norte 11 Norte 0 -- -- 38
2020-10-07 19:00:00 31.1 5 Norte 12 Norte 0 -- -- 34
2020-10-07 18:00:00 33.5 3 Norte 12 Nordeste 0 -- -- 29
2020-10-07 17:00:00 34.3 6 Nordeste 13 Este 0 -- -- 29
2020-10-07 16:00:00 33.7 7 Nordeste 17 Nordeste 0 -- -- 31
2020-10-07 15:00:00 32.9 8 Nordeste 21 Este 0 -- -- 33
2020-10-07 14:00:00 31.4 9 Nordeste 19 Este 0 -- -- 35
2020-10-07 13:00:00 29.7 6 Nordeste 17 Nordeste 0 -- -- 41
2020-10-07 12:00:00 27.2 6 Norte 13 Norte 0 -- -- 46
2020-10-07 11:00:00 23.9 5 Nordeste 16 Nordeste 0 -- -- 52
2020-10-07 10:00:00 20.4 6 Nordeste 18 Nordeste 0 -- -- 60
2020-10-07 09:00:00 16.9 4 Nordeste 9 Norte 0 -- -- 75
2020-10-07 08:00:00 15.9 3 Norte 7 Norte 0 -- -- 81
2020-10-07 07:00:00 16 3 Norte 5 Norte 0 -- -- 81
2020-10-07 06:00:00 16.5 3 Noroeste 5 Norte 0 -- -- 78
2020-10-07 05:00:00 17.2 0 Calma 8 Norte 0 -- -- 75
2020-10-07 04:00:00 17.5 0 Calma 5 Norte 0 -- -- 74
2020-10-07 03:00:00 17.9 3 Norte 5 Norte 0 -- -- 73
2020-10-07 02:00:00 18.5 2 Noroeste 5 Noroeste 0 -- -- 72
2020-10-07 01:00:00 19 0 Calma 3 Norte 0 -- -- 68
2020-10-07 00:00:00 20 0 Calma 2 Este 0 -- -- 65
2020-10-06 23:00:00 21.2 0 Calma 6 Norte 0 -- -- 61
2020-10-06 22:00:00 22.3 3 Noroeste 5 Norte 0 -- -- 61
2020-10-06 21:00:00 23.7 0 Calma 2 Oeste 0 -- -- 56
2020-10-06 20:00:00 26.2 2 Oeste 6 Nordeste 0 -- -- 50
2020-10-06 19:00:00 28.4 3 Noroeste 14 Este 0 -- -- 44
2020-10-06 18:00:00 30 6 Este 20 Este 0 -- -- 39
2020-10-06 17:00:00 30.4 6 Este 17 Este 0 -- -- 38
2020-10-06 16:00:00 30 5 Este 22 Este 0 -- -- 38
2020-10-06 15:00:00 29.2 7 Nordeste 17 Este 0 -- -- 39
2020-10-06 14:00:00 28.2 7 Nordeste 17 Nordeste 0 -- -- 41
2020-10-06 13:00:00 26.4 7 Nordeste 17 Este 0 -- -- 44
2020-10-06 12:00:00 24.4 7 Nordeste 16 Este 0 -- -- 47
2020-10-06 11:00:00 21.6 6 Nordeste 14 Nordeste 0 -- -- 52
2020-10-06 10:00:00 18.7 4 Nordeste 11 Norte 0 -- -- 58
2020-10-06 09:00:00 14.6 3 Norte 9 Norte 0 -- -- 76
2020-10-06 08:00:00 13.7 0 Calma 5 Norte 0 -- -- 76
2020-10-06 07:00:00 14.1 0 Calma 5 Norte 0 -- -- 73
2020-10-06 06:00:00 15 2 Noroeste 4 Nordeste 0 -- -- 68
2020-10-06 05:00:00 15.8 4 Norte 6 Norte 0 -- -- 63
2020-10-06 04:00:00 16.6 3 Nordeste 13 Norte 0 -- -- 57
2020-10-06 03:00:00 17.5 7 Norte 15 Norte 0 -- -- 53
2020-10-06 02:00:00 18.1 8 Norte 15 Norte 0 -- -- 50
2020-10-06 01:00:00 18 5 Norte 10 Noroeste 0 -- -- 51
2020-10-06 00:00:00 19.4 5 Norte 15 Norte 0 -- -- 48
2020-10-05 23:00:00 20.4 7 Norte 16 Norte 0 -- -- 45
2020-10-05 22:00:00 21.2 5 Norte 14 Norte 0 -- -- 42
2020-10-05 21:00:00 22.4 6 Norte 17 Norte 0 -- -- 37
2020-10-05 20:00:00 23.5 4 Nordeste 18 Norte 0 -- -- 34
2020-10-05 19:00:00 25.1 8 Norte 16 Nordeste 0 -- -- 31
2020-10-05 18:00:00 26.8 7 Norte 15 Norte 0 -- -- 29
2020-10-05 17:00:00 27.3 6 Norte 20 Norte 0 -- -- 31
2020-10-05 16:00:00 26.4 9 Norte 13 Noroeste 0 -- -- 35
2020-10-05 15:00:00 25.6 6 Norte 15 Noroeste 0 -- -- 39
2020-10-05 14:00:00 24.8 5 Nordeste 19 Norte 0 -- -- 41
2020-10-05 13:00:00 23.8 7 Norte 15 Norte 0 -- -- 43
2020-10-05 12:00:00 21.6 3 Norte 16 Norte 0 -- -- 49
2020-10-05 11:00:00 19.8 8 Norte 16 Noroeste 0 -- -- 53
2020-10-05 10:00:00 17.4 7 Norte 15 Norte 0 -- -- 59
2020-10-05 09:00:00 13.3 5 Norte 10 Norte 0 -- -- 73
2020-10-05 08:00:00 12.5 2 Norte 6 Norte 0 -- -- 73
2020-10-05 07:00:00 13.4 0 Calma 9 Norte 0 -- -- 68
2020-10-05 06:00:00 14.7 6 Norte 16 Norte 0 -- -- 63
2020-10-05 05:00:00 15.3 7 Noroeste 17 Norte 0 -- -- 61
2020-10-05 04:00:00 15.9 8 Noroeste 15 Norte 0 -- -- 59
2020-10-05 03:00:00 16.7 7 Norte 20 Noroeste 0 -- -- 57
2020-10-05 02:00:00 16.8 7 Noroeste 15 Norte 0 -- -- 60
2020-10-05 01:00:00 16.1 3 Noroeste 9 Noroeste 0 -- -- 71
2020-10-05 00:00:00 16.3 3 Oeste 6 Oeste 0 -- -- 71
2020-10-04 23:00:00 17.6 0 Calma 7 Noroeste 0 -- -- 66
2020-10-04 22:00:00 19.2 2 Noroeste 12 Noroeste 0 -- -- 61
2020-10-04 21:00:00 20.2 7 Noroeste 17 Oeste 0 -- -- 65
2020-10-04 20:00:00 20.8 8 Oeste 29 Sudoeste 0 -- -- 64
2020-10-04 19:00:00 23 14 Oeste 27 Oeste 0 -- -- 54
2020-10-04 18:00:00 25.2 9 Oeste 22 Oeste 0 -- -- 45
2020-10-04 17:00:00 26.1 10 Oeste 34 Oeste 0 -- -- 43
2020-10-04 16:00:00 26.4 11 Oeste 27 Oeste 0 -- -- 39
2020-10-04 15:00:00 26.6 10 Oeste 25 Oeste 0 -- -- 38
2020-10-04 14:00:00 24.9 9 Oeste 22 Oeste 0 -- -- 44
2020-10-04 13:00:00 22.2 7 Oeste 20 Sudoeste 0 -- -- 47
2020-10-04 12:00:00 20.6 7 Sur 13 Sur 0 -- -- 48
2020-10-04 11:00:00 18.8 0 Calma 6 Noroeste 0 -- -- 54
2020-10-04 10:00:00 15.7 2 Norte 4 Norte 0 -- -- 67
2020-10-04 09:00:00 11.4 2 Sudoeste 6 Sudoeste 0 -- -- 89
2020-10-04 08:00:00 10.8 0 Calma 2 Sudoeste 0 -- -- 76
2020-10-04 07:00:00 12.2 0 Calma 8 Norte 0 -- -- 72
2020-10-04 06:00:00 13.6 4 Norte 10 Norte 0 -- -- 67
2020-10-04 05:00:00 14.2 2 Norte 10 Norte 0 -- -- 64
2020-10-04 04:00:00 15.1 8 Norte 16 Norte 0 -- -- 61
2020-10-04 03:00:00 14.7 7 Norte 14 Norte 0 -- -- 65
2020-10-04 02:00:00 13.8 2 Norte 4 Oeste 0 -- -- 75
2020-10-04 01:00:00 14.7 0 Calma 6 Oeste 0 -- -- 73
2020-10-04 00:00:00 15.7 0 Calma 12 Oeste 0 -- -- 70
2020-10-03 23:00:00 16.7 7 Oeste 20 Oeste 0 -- -- 67
2020-10-03 22:00:00 17.6 10 Oeste 22 Sudoeste 0 -- -- 61
2020-10-03 21:00:00 19.1 10 Oeste 22 Oeste 0 -- -- 54
2020-10-03 20:00:00 21 6 Noroeste 18 Noroeste 0 -- -- 39
2020-10-03 19:00:00 22.7 7 Noroeste 22 Oeste 0 -- -- 35
2020-10-03 18:00:00 24.8 9 Noroeste 24 Noroeste 0 -- -- 28
2020-10-03 17:00:00 25.9 8 Noroeste 27 Noroeste 0 -- -- 29
2020-10-03 16:00:00 26.2 10 Noroeste 23 Sudoeste 0 -- -- 31
2020-10-03 15:00:00 25.8 7 Norte 20 Noroeste 0 -- -- 30
2020-10-03 14:00:00 24.8 9 Noroeste 28 Norte 0 -- -- 30
2020-10-03 13:00:00 23.6 8 Noroeste 19 Norte 0 -- -- 32
2020-10-03 12:00:00 21.4 7 Noroeste 19 Norte 0 -- -- 43
2020-10-03 11:00:00 18.9 8 Noroeste 17 Noroeste 0 -- -- 52
2020-10-03 10:00:00 15.3 4 Noroeste 9 Noroeste 0 -- -- 67
2020-10-03 09:00:00 10.6 0 Calma 8 Sudoeste 0 -- -- 83
2020-10-03 08:00:00 10.3 2 Sur 5 Sudoeste 0 -- -- 77
2020-10-03 07:00:00 11.6 2 Sudoeste 10 Noroeste 0 -- -- 73
2020-10-03 06:00:00 12 6 Noroeste 14 Oeste 0 -- -- 72
2020-10-03 05:00:00 12.1 4 Noroeste 13 Noroeste 0 -- -- 69
2020-10-03 04:00:00 12.4 3 Oeste 9 Noroeste 0 -- -- 66
2020-10-03 03:00:00 13.5 4 Oeste 15 Noroeste 0 -- -- 62
2020-10-03 02:00:00 14.5 8 Noroeste 19 Noroeste 0 -- -- 58
2020-10-03 01:00:00 15.1 8 Noroeste 21 Noroeste 0 -- -- 56
2020-10-03 00:00:00 15.7 8 Noroeste 18 Oeste 0 -- -- 59
2020-10-02 23:00:00 16.4 8 Noroeste 16 Oeste 0 -- -- 57
2020-10-02 22:00:00 17.2 7 Noroeste 24 Noroeste 0 -- -- 56
2020-10-02 21:00:00 18.1 10 Noroeste 25 Noroeste 0 -- -- 55
2020-10-02 20:00:00 19.5 13 Noroeste 37 Norte 0 -- -- 60
2020-10-02 19:00:00 21.8 14 Noroeste 38 Noroeste 0 -- -- 54
2020-10-02 18:00:00 23.5 18 Noroeste 51 Oeste 0 -- -- 57
2020-10-02 17:00:00 23.5 24 Noroeste 44 Noroeste 0 -- -- 59
2020-10-02 16:00:00 24.2 18 Oeste 51 Oeste 0 -- -- 67
2020-10-02 15:00:00 23.3 22 Oeste 53 Sudoeste 0 -- -- 69
2020-10-02 14:00:00 24.5 24 Oeste 50 Oeste 0 -- -- 65
2020-10-02 13:00:00 23.3 23 Oeste 44 Sudoeste 0 -- -- 65
2020-10-02 12:00:00 22.7 20 Sudoeste 41 Sudoeste 0 -- -- 67
2020-10-02 11:00:00 20.1 18 Sudoeste 39 Sudoeste 0 -- -- 74
2020-10-02 10:00:00 17.8 14 Sudoeste 30 Sudoeste 0 -- -- 83
2020-10-02 09:00:00 16.3 7 Sudoeste 20 Sudoeste 0 -- -- 82
2020-10-02 08:00:00 15.2 11 Sur 17 Sur 0 -- -- 84
2020-10-02 07:00:00 15.6 6 Sudoeste 14 Sur 0 -- -- 79
2020-10-02 06:00:00 16.2 6 Sudoeste 12 Oeste 0 -- -- 76
2020-10-02 05:00:00 16.9 5 Oeste 14 Oeste 0 -- -- 73
2020-10-02 04:00:00 17.8 8 Oeste 20 Oeste 0 -- -- 70
2020-10-02 03:00:00 18.6 7 Noroeste 16 Oeste 0 -- -- 66
2020-10-02 02:00:00 19.2 7 Noroeste 19 Oeste 0 -- -- 62
2020-10-02 01:00:00 19.6 6 Oeste 18 Oeste 0 -- -- 61
2020-10-02 00:00:00 20 5 Oeste 15 Oeste 0 -- -- 65
2020-10-01 23:00:00 20.8 7 Oeste 14 Oeste 0 -- -- 71
2020-10-01 22:00:00 21.7 7 Oeste 21 Sudoeste 0 -- -- 69
2020-10-01 21:00:00 22.9 11 Oeste 26 Sudoeste 0 -- -- 63
2020-10-01 20:00:00 25.4 14 Oeste 32 Oeste 0 -- -- 54
2020-10-01 19:00:00 27.1 14 Oeste 33 Oeste 0 -- -- 46
2020-10-01 18:00:00 28.3 12 Sur 28 Sur 0 -- -- 42
2020-10-01 17:00:00 29.4 10 Sur 20 Sudoeste 0 -- -- 39
2020-10-01 16:00:00 29.4 4 Oeste 13 Nordeste 0 -- -- 38
2020-10-01 15:00:00 29.2 5 Norte 14 Noroeste 0 -- -- 38
2020-10-01 14:00:00 27.6 5 Nordeste 16 Norte 0 -- -- 41
2020-10-01 13:00:00 26.2 4 Norte 12 Norte 0 -- -- 44
2020-10-01 12:00:00 24.3 5 Noroeste 12 Norte 0 -- -- 51
2020-10-01 11:00:00 20.3 6 Norte 15 Noroeste 0 -- -- 67
2020-10-01 10:00:00 17.2 3 Sur 5 Sur 0 -- -- 97
2020-10-01 09:00:00 16.9 2 Oeste 6 Oeste 0 -- -- 97
2020-10-01 08:00:00 16.8 3 Sudoeste 5 Sudoeste 0 -- -- 97
2020-10-01 07:00:00 17 0 Calma 5 Sudeste 0 -- -- 97
2020-10-01 06:00:00 17.3 4 Oeste 8 Sudoeste 0 -- -- 97
2020-10-01 05:00:00 17.4 4 Sur 9 Sur 0 -- -- 97
2020-10-01 04:00:00 17.3 5 Sur 10 Sudeste 0 -- -- 95
2020-10-01 03:00:00 17.7 3 Sur 10 Sur 0 -- -- 93
2020-10-01 02:00:00 18.2 2 Sur 12 Sudoeste 0 -- -- 90
2020-10-01 01:00:00 19.4 4 Sur 11 Sudoeste 0 -- -- 83
2020-10-01 00:00:00 21.1 4 Sur 13 Sur 0 -- -- 74